createdAt,value
2022-12-03T00:02:09.842Z,5.17
2022-12-03T00:04:36.303Z,5.02
2022-12-03T00:07:02.723Z,5.27
2022-12-03T00:09:29.108Z,5.03
2022-12-03T00:11:55.550Z,5.27
2022-12-03T00:14:22.120Z,4.82
2022-12-03T00:16:49.177Z,5.07
2022-12-03T00:19:15.691Z,5.19
2022-12-03T00:21:42.082Z,5.16
2022-12-03T00:24:08.470Z,5.12
2022-12-03T00:26:34.880Z,5.55
2022-12-03T00:29:01.240Z,5.55
2022-12-03T00:31:27.743Z,5.37
2022-12-03T00:33:54.241Z,5.64
2022-12-03T00:36:20.638Z,5.51
2022-12-03T00:38:47.005Z,4.95
2022-12-03T00:41:13.445Z,5.28
2022-12-03T00:43:40.107Z,5.09
2022-12-03T00:46:06.730Z,4.82
2022-12-03T00:48:33.159Z,4.89
2022-12-03T00:50:59.610Z,5.30
2022-12-03T00:53:26.078Z,5.19
2022-12-03T00:55:52.497Z,4.85
2022-12-03T00:58:20.962Z,4.74
2022-12-03T01:00:47.314Z,5.17
2022-12-03T01:03:13.690Z,4.86
2022-12-03T01:05:40.084Z,5.01
2022-12-03T01:08:06.616Z,5.27
2022-12-03T01:10:34.289Z,5.40
2022-12-03T01:13:00.683Z,5.36
2022-12-03T01:15:27.064Z,5.01
2022-12-03T01:17:53.469Z,4.93
2022-12-03T01:20:19.917Z,4.93
2022-12-03T01:22:46.308Z,5.03
2022-12-03T01:25:12.667Z,5.01
2022-12-03T01:27:39.023Z,4.97
2022-12-03T01:30:05.398Z,5.19
2022-12-03T01:32:31.768Z,5.04
2022-12-03T01:34:58.126Z,5.25
2022-12-03T01:37:24.542Z,5.44
2022-12-03T01:39:50.934Z,5.25
2022-12-03T01:42:17.331Z,4.74
2022-12-03T01:44:43.734Z,5.08
2022-12-03T01:47:10.165Z,5.36
2022-12-03T01:49:36.603Z,5.00
2022-12-03T01:52:02.982Z,5.03
2022-12-03T01:54:29.389Z,5.22
2022-12-03T01:56:55.758Z,4.88
2022-12-03T01:59:22.123Z,5.19
2022-12-03T02:01:48.521Z,5.10
2022-12-03T02:04:15.052Z,5.18
2022-12-03T02:06:41.544Z,5.05
2022-12-03T02:09:08.033Z,4.89
2022-12-03T02:11:34.387Z,5.06
2022-12-03T02:14:00.811Z,5.11
2022-12-03T02:16:27.300Z,4.95
2022-12-03T02:18:53.738Z,5.02
2022-12-03T02:21:20.173Z,5.19
2022-12-03T02:23:46.644Z,5.35
2022-12-03T02:26:13.158Z,5.21
2022-12-03T02:28:39.544Z,4.93
2022-12-03T02:31:06.009Z,4.93
2022-12-03T02:33:32.422Z,5.08
2022-12-03T02:36:03.283Z,4.93
2022-12-03T02:38:30.355Z,5.04
2022-12-03T02:40:56.758Z,5.14
2022-12-03T02:43:23.106Z,4.73
2022-12-03T02:45:49.509Z,4.64
2022-12-03T02:48:15.859Z,4.96
2022-12-03T02:50:42.232Z,4.97
2022-12-03T02:53:08.595Z,4.77
2022-12-03T02:55:37.085Z,5.18
2022-12-03T02:58:03.928Z,5.10
2022-12-03T03:00:30.349Z,4.99
2022-12-03T03:02:56.800Z,5.04
2022-12-03T03:05:23.498Z,5.16
2022-12-03T03:07:49.943Z,5.03
2022-12-03T03:10:16.395Z,5.08
2022-12-03T03:12:42.776Z,5.04
2022-12-03T03:15:09.165Z,4.80
2022-12-03T03:17:35.537Z,5.06
2022-12-03T03:20:01.952Z,5.01
2022-12-03T03:22:28.361Z,4.86
2022-12-03T03:24:55.075Z,5.02
2022-12-03T03:27:21.603Z,4.96
2022-12-03T03:29:48.082Z,4.90
2022-12-03T03:32:14.459Z,4.86
2022-12-03T03:34:40.850Z,4.82
2022-12-03T03:37:07.271Z,5.16
2022-12-03T03:39:33.686Z,4.76
2022-12-03T03:42:00.086Z,5.07
2022-12-03T03:44:26.445Z,5.33
2022-12-03T03:46:52.842Z,5.34
2022-12-03T03:49:19.261Z,5.10
2022-12-03T03:51:45.617Z,5.14
2022-12-03T03:54:12.056Z,5.05
2022-12-03T03:56:38.471Z,5.31
2022-12-03T03:59:04.839Z,5.32
2022-12-03T04:01:31.327Z,4.96
2022-12-03T04:03:57.963Z,5.02
2022-12-03T04:06:24.528Z,5.18
2022-12-03T04:08:50.905Z,5.33
2022-12-03T04:11:17.441Z,5.03
2022-12-03T04:13:43.797Z,5.32
2022-12-03T04:16:10.286Z,5.34
2022-12-03T04:18:36.755Z,5.17
2022-12-03T04:21:03.156Z,5.28
2022-12-03T04:23:31.135Z,5.39
2022-12-03T04:25:57.635Z,5.20
2022-12-03T04:28:24.032Z,5.55
2022-12-03T04:30:50.463Z,5.04
2022-12-03T04:33:17.032Z,4.94
2022-12-03T04:35:43.490Z,5.26
2022-12-03T04:38:09.955Z,5.25
2022-12-03T04:40:36.352Z,5.26
2022-12-03T04:43:02.755Z,4.98
2022-12-03T04:45:29.275Z,5.21
2022-12-03T04:47:55.661Z,4.95
2022-12-03T04:50:22.038Z,5.09
2022-12-03T04:52:48.417Z,5.24
2022-12-03T04:55:14.798Z,5.33
2022-12-03T04:57:41.165Z,5.04
2022-12-03T05:00:07.532Z,5.05
2022-12-03T05:02:33.971Z,5.25
2022-12-03T05:05:00.443Z,5.30
2022-12-03T05:07:26.956Z,5.14
2022-12-03T05:09:53.385Z,5.06
2022-12-03T05:12:19.760Z,5.08
2022-12-03T05:14:46.166Z,5.08
2022-12-03T05:17:12.664Z,5.06
2022-12-03T05:19:39.137Z,4.85
2022-12-03T05:22:05.525Z,4.93
2022-12-03T05:24:31.921Z,5.23
2022-12-03T05:26:58.301Z,5.00
2022-12-03T05:29:24.723Z,5.21
2022-12-03T05:31:51.102Z,5.02
2022-12-03T05:34:17.463Z,5.37
2022-12-03T05:36:43.918Z,5.19
2022-12-03T05:39:10.308Z,5.19
2022-12-03T05:41:36.657Z,5.11
2022-12-03T05:44:03.035Z,5.21
2022-12-03T05:46:29.526Z,5.02
2022-12-03T05:48:56.005Z,5.03
2022-12-03T05:51:22.380Z,4.81
2022-12-03T05:53:48.777Z,5.10
2022-12-03T05:56:15.146Z,4.89
2022-12-03T05:58:41.551Z,4.99
2022-12-03T06:01:07.988Z,4.58
2022-12-03T06:03:34.525Z,4.78
2022-12-03T06:06:00.978Z,5.00
2022-12-03T06:08:27.429Z,5.01
2022-12-03T06:10:53.827Z,5.04
2022-12-03T06:13:20.202Z,5.09
2022-12-03T06:15:46.667Z,5.00
2022-12-03T06:18:13.162Z,5.11
2022-12-03T06:20:39.591Z,5.03
2022-12-03T06:23:05.951Z,4.66
2022-12-03T06:25:32.356Z,4.94
2022-12-03T06:27:58.713Z,4.92
2022-12-03T06:30:25.079Z,5.11
2022-12-03T06:32:51.459Z,4.70
2022-12-03T06:35:17.892Z,4.79
2022-12-03T06:37:44.329Z,5.29
2022-12-03T06:40:10.758Z,4.93
2022-12-03T06:42:37.200Z,4.89
2022-12-03T06:45:03.626Z,5.24
2022-12-03T06:47:30.043Z,5.51
2022-12-03T06:49:56.403Z,4.94
2022-12-03T06:52:22.771Z,5.05
2022-12-03T06:54:49.235Z,5.04
2022-12-03T06:57:15.634Z,4.72
2022-12-03T06:59:42.186Z,5.23
2022-12-03T07:02:08.647Z,5.11
2022-12-03T07:04:35.026Z,5.23
2022-12-03T07:07:01.437Z,5.44
2022-12-03T07:09:27.844Z,5.23
2022-12-03T07:11:54.320Z,5.29
2022-12-03T07:14:20.701Z,5.30
2022-12-03T07:16:47.090Z,5.67
2022-12-03T07:19:13.558Z,5.60
2022-12-03T07:21:39.963Z,5.42
2022-12-03T07:24:06.384Z,5.07
2022-12-03T07:26:47.842Z,5.64
2022-12-03T07:29:14.252Z,5.44
2022-12-03T07:31:40.743Z,5.37
2022-12-03T07:34:07.172Z,5.53
2022-12-03T07:36:33.550Z,5.33
2022-12-03T07:38:59.987Z,5.61
2022-12-03T07:41:26.449Z,5.41
2022-12-03T07:43:52.874Z,5.39
2022-12-03T07:46:19.302Z,5.39
2022-12-03T07:48:45.688Z,5.27
2022-12-03T07:51:15.174Z,5.26
2022-12-03T07:53:42.051Z,5.46
2022-12-03T07:56:08.420Z,5.22
2022-12-03T07:58:34.817Z,5.25
2022-12-03T08:01:01.451Z,5.30
2022-12-03T08:03:27.899Z,5.53
2022-12-03T08:05:54.396Z,5.10
2022-12-03T08:08:20.787Z,5.04
2022-12-03T08:10:47.168Z,5.29
2022-12-03T08:13:13.520Z,5.22
2022-12-03T08:15:39.992Z,5.04
2022-12-03T08:18:06.380Z,5.24
2022-12-03T08:20:32.790Z,5.46
2022-12-03T08:22:59.155Z,5.39
2022-12-03T08:25:25.587Z,4.92
2022-12-03T08:27:55.107Z,5.56
2022-12-03T08:30:21.553Z,5.98
2022-12-03T08:32:47.939Z,5.81
2022-12-03T08:35:14.357Z,5.72
2022-12-03T08:37:40.746Z,5.69
2022-12-03T08:40:07.516Z,5.64
2022-12-03T08:42:33.959Z,6.21
2022-12-03T08:45:00.339Z,6.64
2022-12-03T08:47:26.735Z,7.02
2022-12-03T08:49:53.153Z,7.78
2022-12-03T08:52:19.534Z,7.31
2022-12-03T08:54:45.953Z,6.86
2022-12-03T08:57:12.390Z,6.56
2022-12-03T08:59:42.675Z,6.47
2022-12-03T09:02:11.882Z,6.12
2022-12-03T09:04:38.386Z,6.58
2022-12-03T09:07:04.857Z,6.45
2022-12-03T09:09:31.265Z,6.59
2022-12-03T09:11:57.632Z,6.15
2022-12-03T09:14:24.031Z,6.15
2022-12-03T09:16:50.498Z,6.32
2022-12-03T09:19:16.974Z,6.06
2022-12-03T09:21:43.377Z,6.33
2022-12-03T09:24:09.750Z,6.18
2022-12-03T09:26:36.213Z,6.29
2022-12-03T09:29:05.344Z,5.31
2022-12-03T09:31:35.486Z,5.90
2022-12-03T09:34:01.938Z,6.01
2022-12-03T09:36:28.366Z,6.20
2022-12-03T09:38:54.741Z,6.24
2022-12-03T09:41:21.115Z,6.03
2022-12-03T09:44:03.858Z,6.02
2022-12-03T09:46:31.294Z,6.27
2022-12-03T09:48:57.740Z,6.35
2022-12-03T09:51:24.147Z,6.19
2022-12-03T09:53:50.523Z,6.16
2022-12-03T09:56:16.894Z,5.88
2022-12-03T09:58:43.275Z,5.95
2022-12-03T10:01:09.719Z,5.96
2022-12-03T10:03:36.136Z,6.18
2022-12-03T10:06:02.574Z,5.96
2022-12-03T10:08:32.177Z,6.25
2022-12-03T10:10:58.929Z,6.12
2022-12-03T10:13:26.155Z,5.60
2022-12-03T10:15:52.628Z,6.09
2022-12-03T10:18:18.989Z,5.83
2022-12-03T10:20:45.377Z,5.86
2022-12-03T10:23:11.857Z,5.61
2022-12-03T10:25:38.228Z,5.97
2022-12-03T10:28:04.581Z,5.78
2022-12-03T10:30:31.180Z,5.91
2022-12-03T10:32:57.646Z,5.90
2022-12-03T10:35:24.015Z,5.78
2022-12-03T10:37:50.451Z,5.86
2022-12-03T10:40:16.814Z,5.58
2022-12-03T10:42:43.175Z,5.85
2022-12-03T10:45:09.544Z,5.82
2022-12-03T10:47:36.112Z,6.01
2022-12-03T10:50:02.700Z,6.01
2022-12-03T10:52:29.078Z,5.89
2022-12-03T10:54:55.828Z,5.87
2022-12-03T10:57:22.402Z,5.94
2022-12-03T10:59:48.785Z,6.04
2022-12-03T11:02:15.160Z,6.05
2022-12-03T11:04:41.525Z,5.87
2022-12-03T11:07:07.916Z,6.12
2022-12-03T11:09:34.378Z,6.05
2022-12-03T11:12:00.796Z,6.09
2022-12-03T11:14:27.197Z,6.36
2022-12-03T11:16:53.587Z,6.24
2022-12-03T11:19:20.061Z,6.31
2022-12-03T11:21:46.663Z,6.50
2022-12-03T11:24:13.051Z,6.36
2022-12-03T11:26:39.425Z,5.98
2022-12-03T11:29:05.963Z,6.53
2022-12-03T11:31:32.446Z,6.10
2022-12-03T11:33:58.908Z,6.51
2022-12-03T11:36:42.295Z,6.12
2022-12-03T11:39:11.877Z,6.01
2022-12-03T11:41:38.274Z,5.78
2022-12-03T11:44:04.654Z,6.26
2022-12-03T11:46:31.134Z,5.99
2022-12-03T11:48:57.537Z,6.12
2022-12-03T11:51:23.906Z,6.28
2022-12-03T11:53:50.312Z,6.10
2022-12-03T11:56:16.783Z,6.10
2022-12-03T11:58:43.175Z,5.83
2022-12-03T12:01:09.596Z,5.30
2022-12-03T12:03:36.096Z,5.89
2022-12-03T12:06:02.548Z,5.77
2022-12-03T12:08:28.980Z,5.71
2022-12-03T12:10:55.510Z,6.11
2022-12-03T12:13:21.900Z,5.48
2022-12-03T12:15:48.321Z,5.43
2022-12-03T12:18:14.880Z,5.79
2022-12-03T12:20:41.274Z,6.00
2022-12-03T12:23:07.705Z,5.71
2022-12-03T12:25:34.352Z,5.50
2022-12-03T12:28:00.722Z,5.80
2022-12-03T12:30:27.132Z,5.86
2022-12-03T12:32:53.606Z,5.94
2022-12-03T12:35:20.036Z,6.02
2022-12-03T12:37:48.166Z,5.86
2022-12-03T12:40:16.777Z,6.08
2022-12-03T12:42:43.219Z,5.90
2022-12-03T12:45:09.798Z,5.94
2022-12-03T12:47:36.309Z,6.46
2022-12-03T12:50:02.920Z,6.29
2022-12-03T12:52:29.336Z,6.25
2022-12-03T12:54:59.097Z,6.25
2022-12-03T12:57:29.600Z,7.96
2022-12-03T12:59:56.412Z,6.09
2022-12-03T13:02:22.982Z,6.30
2022-12-03T13:04:49.443Z,5.80
2022-12-03T13:07:16.176Z,6.00
2022-12-03T13:09:42.637Z,6.01
2022-12-03T13:12:09.049Z,5.90
2022-12-03T13:14:35.490Z,5.90
2022-12-03T13:17:01.926Z,5.72
2022-12-03T13:19:28.304Z,5.93
2022-12-03T13:21:54.703Z,5.71
2022-12-03T13:24:21.091Z,5.44
2022-12-03T13:26:47.479Z,5.60
2022-12-03T13:29:13.973Z,5.67
2022-12-03T13:31:43.746Z,5.55
2022-12-03T13:34:10.831Z,5.98
2022-12-03T13:36:37.261Z,5.96
2022-12-03T13:39:03.711Z,5.66
2022-12-03T13:41:30.075Z,5.90
2022-12-03T13:43:56.486Z,5.77
2022-12-03T13:46:22.999Z,5.80
2022-12-03T13:48:49.436Z,5.27
2022-12-03T13:51:15.776Z,5.77
2022-12-03T13:53:42.107Z,5.58
2022-12-03T13:56:08.517Z,5.86
2022-12-03T13:58:34.908Z,5.75
2022-12-03T14:01:01.322Z,5.50
2022-12-03T14:03:27.717Z,5.44
2022-12-03T14:05:54.214Z,5.79
2022-12-03T14:08:20.739Z,5.45
2022-12-03T14:10:47.285Z,5.77
2022-12-03T14:13:13.656Z,5.82
2022-12-03T14:15:40.171Z,5.78
2022-12-03T14:18:06.575Z,5.20
2022-12-03T14:20:33.048Z,5.49
2022-12-03T14:22:59.792Z,5.66
2022-12-03T14:25:26.361Z,5.89
2022-12-03T14:27:52.726Z,5.65
2022-12-03T14:30:19.118Z,5.82
2022-12-03T14:32:45.510Z,5.59
2022-12-03T14:35:11.875Z,5.61
2022-12-03T14:37:38.248Z,5.44
2022-12-03T14:40:04.668Z,5.56
2022-12-03T14:42:31.116Z,5.81
2022-12-03T14:44:57.465Z,5.37
2022-12-03T14:47:23.890Z,5.32
2022-12-03T14:49:50.261Z,5.53
2022-12-03T14:52:16.620Z,5.45
2022-12-03T14:54:43.074Z,5.53
2022-12-03T14:57:09.501Z,5.57
2022-12-03T14:59:36.070Z,5.60
2022-12-03T15:02:02.756Z,5.54
2022-12-03T15:04:29.380Z,5.47
2022-12-03T15:06:55.742Z,5.73
2022-12-03T15:09:22.135Z,5.75
2022-12-03T15:11:48.648Z,5.31
2022-12-03T15:14:15.041Z,5.46
2022-12-03T15:16:41.473Z,5.52
2022-12-03T15:19:07.905Z,5.30
2022-12-03T15:21:34.384Z,5.52
2022-12-03T15:24:00.801Z,5.40
2022-12-03T15:26:27.214Z,5.11
2022-12-03T15:28:53.655Z,5.24
2022-12-03T15:31:20.114Z,5.69
2022-12-03T15:33:46.581Z,5.67
2022-12-03T15:36:13.041Z,5.38
2022-12-03T15:38:39.413Z,5.37
2022-12-03T15:41:05.790Z,5.94
2022-12-03T15:43:32.258Z,5.43
2022-12-03T15:45:58.680Z,5.35
2022-12-03T15:48:25.081Z,5.14
2022-12-03T15:50:51.471Z,5.48
2022-12-03T15:53:17.845Z,5.58
2022-12-03T15:55:44.186Z,5.38
2022-12-03T15:58:10.556Z,5.63
2022-12-03T16:00:36.969Z,5.18
2022-12-03T16:03:03.345Z,5.31
2022-12-03T16:05:29.731Z,5.53
2022-12-03T16:07:56.123Z,5.39
2022-12-03T16:10:22.606Z,5.30
2022-12-03T16:12:48.958Z,5.22
2022-12-03T16:15:15.337Z,5.00
2022-12-03T16:17:41.714Z,5.30
2022-12-03T16:20:08.112Z,5.22
2022-12-03T16:22:34.585Z,5.29
2022-12-03T16:25:01.061Z,5.63
2022-12-03T16:27:27.529Z,5.41
2022-12-03T16:29:54.254Z,5.18
2022-12-03T16:32:20.879Z,5.44
2022-12-03T16:34:47.315Z,5.14
2022-12-03T16:37:13.850Z,5.02
2022-12-03T16:39:40.299Z,5.19
2022-12-03T16:42:10.430Z,5.51
2022-12-03T16:44:42.641Z,5.33
2022-12-03T16:47:09.107Z,5.04
2022-12-03T16:49:35.711Z,5.49
2022-12-03T16:52:02.175Z,5.23
2022-12-03T16:54:28.646Z,5.15
2022-12-03T16:56:55.053Z,5.16
2022-12-03T16:59:21.438Z,5.32
2022-12-03T17:01:47.951Z,5.22
2022-12-03T17:04:14.433Z,5.44
2022-12-03T17:06:40.807Z,5.26
2022-12-03T17:09:07.180Z,5.43
2022-12-03T17:11:33.625Z,5.25
2022-12-03T17:13:59.987Z,5.20
2022-12-03T17:16:26.444Z,5.33
2022-12-03T17:18:52.859Z,5.26
2022-12-03T17:21:19.406Z,4.95
2022-12-03T17:23:45.810Z,5.08
2022-12-03T17:26:12.150Z,4.88
2022-12-03T17:28:38.482Z,5.51
2022-12-03T17:31:04.885Z,5.56
2022-12-03T17:33:31.337Z,5.14
2022-12-03T17:35:57.800Z,5.10
2022-12-03T17:38:24.163Z,5.08
2022-12-03T17:40:50.535Z,5.41
2022-12-03T17:43:16.907Z,5.08
2022-12-03T17:45:43.306Z,5.15
2022-12-03T17:48:09.724Z,5.35
2022-12-03T17:50:36.130Z,5.24
2022-12-03T17:53:02.607Z,5.26
2022-12-03T17:55:37.234Z,5.15
2022-12-03T17:58:09.200Z,5.33
2022-12-03T18:00:35.609Z,5.41
2022-12-03T18:03:01.977Z,5.01
2022-12-03T18:05:28.346Z,5.07
2022-12-03T18:07:54.754Z,5.23
2022-12-03T18:10:21.172Z,5.23
2022-12-03T18:12:47.596Z,5.05
2022-12-03T18:15:14.138Z,5.30
2022-12-03T18:17:40.492Z,5.18
2022-12-03T18:20:07.115Z,5.34
2022-12-03T18:22:33.488Z,4.94
2022-12-03T18:24:59.890Z,5.30
2022-12-03T18:27:26.298Z,5.34
2022-12-03T18:29:53.490Z,5.03
2022-12-03T18:32:28.801Z,5.23
2022-12-03T18:34:56.450Z,5.04
2022-12-03T18:37:23.069Z,5.31
2022-12-03T18:39:49.471Z,5.14
2022-12-03T18:42:15.825Z,5.12
2022-12-03T18:44:47.911Z,5.55
2022-12-03T18:47:16.134Z,5.96
2022-12-03T18:49:42.611Z,5.65
2022-12-03T18:52:08.961Z,6.01
2022-12-03T18:54:35.358Z,6.46
2022-12-03T18:57:01.757Z,6.00
2022-12-03T18:59:28.183Z,6.22
2022-12-03T19:01:54.667Z,6.20
2022-12-03T19:04:21.138Z,6.42
2022-12-03T19:06:47.518Z,6.38
2022-12-03T19:09:13.935Z,6.48
2022-12-03T19:11:40.298Z,6.46
2022-12-03T19:14:06.706Z,6.48
2022-12-03T19:16:33.199Z,6.49
2022-12-03T19:18:59.693Z,6.29
2022-12-03T19:21:30.718Z,6.15
2022-12-03T19:24:23.096Z,5.78
2022-12-03T19:26:46.223Z,6.15
2022-12-03T19:29:12.689Z,5.81
2022-12-03T19:31:39.108Z,5.88
2022-12-03T19:34:05.602Z,5.66
2022-12-03T19:36:32.131Z,6.33
2022-12-03T19:38:58.671Z,5.98
2022-12-03T19:41:25.045Z,5.90
2022-12-03T19:43:51.469Z,6.00
2022-12-03T19:46:18.132Z,5.72
2022-12-03T19:48:44.611Z,6.17
2022-12-03T19:51:32.847Z,5.81
2022-12-03T19:53:57.510Z,5.88
2022-12-03T19:56:24.005Z,5.88
2022-12-03T19:58:50.407Z,6.00
2022-12-03T20:01:16.880Z,5.74
2022-12-03T20:03:43.345Z,5.62
2022-12-03T20:06:09.787Z,5.73
2022-12-03T20:08:36.197Z,5.92
2022-12-03T20:11:02.610Z,6.10
2022-12-03T20:13:33.504Z,5.79
2022-12-03T20:16:02.859Z,5.78
2022-12-03T20:18:29.375Z,5.83
2022-12-03T20:20:55.927Z,5.38
2022-12-03T20:23:22.323Z,5.61
2022-12-03T20:25:48.698Z,5.61
2022-12-03T20:28:15.127Z,5.64
2022-12-03T20:30:41.513Z,5.76
2022-12-03T20:33:08.006Z,5.39
2022-12-03T20:35:34.519Z,5.21
2022-12-03T20:38:02.087Z,5.47
2022-12-03T20:40:28.514Z,5.58
2022-12-03T20:42:54.917Z,5.53
2022-12-03T20:45:21.392Z,5.61
2022-12-03T20:47:47.813Z,5.74
2022-12-03T20:50:14.247Z,5.19
2022-12-03T20:52:48.483Z,5.48
2022-12-03T20:55:24.405Z,5.59
2022-12-03T20:57:50.848Z,5.71
2022-12-03T21:00:17.270Z,5.60
2022-12-03T21:02:43.781Z,5.24
2022-12-03T21:05:10.366Z,5.76
2022-12-03T21:07:36.889Z,5.31
2022-12-03T21:10:03.321Z,5.42
2022-12-03T21:12:29.729Z,5.59
2022-12-03T21:14:56.308Z,5.75
2022-12-03T21:17:23.033Z,5.25
2022-12-03T21:19:49.391Z,5.19
2022-12-03T21:22:15.728Z,5.35
2022-12-03T21:24:42.141Z,5.30
2022-12-03T21:27:08.525Z,5.20
2022-12-03T21:29:34.885Z,5.35
2022-12-03T21:32:01.376Z,5.20
2022-12-03T21:34:32.809Z,5.25
2022-12-03T21:37:02.539Z,5.18
2022-12-03T21:39:28.988Z,5.34
2022-12-03T21:42:33.353Z,5.47
2022-12-03T21:44:42.016Z,5.40
2022-12-03T21:47:13.974Z,5.14
2022-12-03T21:49:41.071Z,5.32
2022-12-03T21:52:07.538Z,5.18
2022-12-03T21:54:34.153Z,5.00
2022-12-03T21:57:00.566Z,5.24
2022-12-03T21:59:27.031Z,5.57
2022-12-03T22:01:53.449Z,5.43
2022-12-03T22:04:19.922Z,5.49
2022-12-03T22:06:46.316Z,5.31
2022-12-03T22:09:12.774Z,5.11
2022-12-03T22:11:39.249Z,5.31
2022-12-03T22:14:05.648Z,5.51
2022-12-03T22:16:32.077Z,4.98
2022-12-03T22:18:58.499Z,5.27
2022-12-03T22:21:24.959Z,5.32
2022-12-03T22:23:51.334Z,5.25
2022-12-03T22:26:17.742Z,5.44
2022-12-03T22:28:44.464Z,5.09
2022-12-03T22:31:10.923Z,5.33
2022-12-03T22:33:37.337Z,5.09
2022-12-03T22:36:03.715Z,5.07
2022-12-03T22:38:30.169Z,5.51
2022-12-03T22:40:56.552Z,5.58
2022-12-03T22:43:22.920Z,5.15
2022-12-03T22:45:49.393Z,5.10
2022-12-03T22:48:15.790Z,5.14
2022-12-03T22:50:42.182Z,5.01
2022-12-03T22:53:08.575Z,5.22
2022-12-03T22:55:34.952Z,5.10
2022-12-03T22:58:01.377Z,5.35
2022-12-03T23:00:27.754Z,5.17
2022-12-03T23:02:54.227Z,5.11
2022-12-03T23:05:20.623Z,5.17
2022-12-03T23:07:47.089Z,5.02
2022-12-03T23:10:13.486Z,5.03
2022-12-03T23:12:39.849Z,5.12
2022-12-03T23:15:06.245Z,4.78
2022-12-03T23:17:32.601Z,4.90
2022-12-03T23:19:59.013Z,5.46
2022-12-03T23:22:25.391Z,5.11
2022-12-03T23:24:51.770Z,4.92
2022-12-03T23:27:18.264Z,4.82
2022-12-03T23:29:44.623Z,5.13
2022-12-03T23:32:11.002Z,5.11
2022-12-03T23:34:37.458Z,5.18
2022-12-03T23:37:03.861Z,5.36
2022-12-03T23:39:30.215Z,5.30
2022-12-03T23:41:56.637Z,5.38
2022-12-03T23:44:23.057Z,5.31
2022-12-03T23:46:49.634Z,5.17
2022-12-03T23:49:16.100Z,5.13
2022-12-03T23:51:42.485Z,5.09
2022-12-03T23:54:08.845Z,5.31
2022-12-03T23:56:35.241Z,5.18
2022-12-03T23:59:01.629Z,5.17
